sensor_id;sensor_type;location;lat;lon;timestamp;pressure;altitude;pressure_sealevel;temperature;humidity
30873;BME280;17579;42.690;2.586;2022-07-29T00:02:11;97041.88;;;27.33;36.09
30873;BME280;17579;42.690;2.586;2022-07-29T00:04:39;97046.47;;;27.32;36.16
30873;BME280;17579;42.690;2.586;2022-07-29T00:07:04;97042.94;;;27.31;36.65
30873;BME280;17579;42.690;2.586;2022-07-29T00:09:31;97039.66;;;27.29;36.58
30873;BME280;17579;42.690;2.586;2022-07-29T00:11:59;97040.75;;;27.28;36.46
30873;BME280;17579;42.690;2.586;2022-07-29T00:14:25;97039.91;;;27.28;36.68
30873;BME280;17579;42.690;2.586;2022-07-29T00:16:51;97040.69;;;27.23;36.64
30873;BME280;17579;42.690;2.586;2022-07-29T00:19:16;97033.06;;;27.20;36.41
30873;BME280;17579;42.690;2.586;2022-07-29T00:21:42;97031.44;;;27.19;36.88
30873;BME280;17579;42.690;2.586;2022-07-29T00:24:08;97023.53;;;27.18;36.69
30873;BME280;17579;42.690;2.586;2022-07-29T00:26:33;97021.63;;;27.18;36.97
30873;BME280;17579;42.690;2.586;2022-07-29T00:29:00;97020.28;;;27.16;36.87
30873;BME280;17579;42.690;2.586;2022-07-29T00:31:26;97025.38;;;27.12;36.93
30873;BME280;17579;42.690;2.586;2022-07-29T00:33:52;97027.56;;;27.10;36.84
30873;BME280;17579;42.690;2.586;2022-07-29T00:36:18;97027.25;;;27.06;36.74
30873;BME280;17579;42.690;2.586;2022-07-29T00:38:44;97025.84;;;27.04;37.04
30873;BME280;17579;42.690;2.586;2022-07-29T00:41:11;97016.59;;;27.00;37.10
30873;BME280;17579;42.690;2.586;2022-07-29T00:43:37;97022.53;;;26.96;37.48
30873;BME280;17579;42.690;2.586;2022-07-29T00:46:03;97023.03;;;26.93;37.33
30873;BME280;17579;42.690;2.586;2022-07-29T00:48:29;97017.31;;;26.90;37.37
30873;BME280;17579;42.690;2.586;2022-07-29T00:50:57;97012.16;;;26.88;37.49
30873;BME280;17579;42.690;2.586;2022-07-29T00:53:24;97006.97;;;26.87;37.52
30873;BME280;17579;42.690;2.586;2022-07-29T00:55:50;97006.97;;;26.87;37.31
30873;BME280;17579;42.690;2.586;2022-07-29T00:58:16;97002.38;;;26.87;37.76
30873;BME280;17579;42.690;2.586;2022-07-29T01:00:42;96994.22;;;26.87;37.39
30873;BME280;17579;42.690;2.586;2022-07-29T01:03:08;96996.94;;;26.87;37.34
30873;BME280;17579;42.690;2.586;2022-07-29T01:05:34;96985.75;;;26.84;37.85
30873;BME280;17579;42.690;2.586;2022-07-29T01:08:01;96996.38;;;26.85;37.83
30873;BME280;17579;42.690;2.586;2022-07-29T01:10:27;96983.63;;;26.86;37.33
30873;BME280;17579;42.690;2.586;2022-07-29T01:12:57;96979.00;;;26.86;37.72
30873;BME280;17579;42.690;2.586;2022-07-29T01:15:24;96979.34;;;26.90;37.89
30873;BME280;17579;42.690;2.586;2022-07-29T01:18:02;96981.97;;;26.85;37.68
30873;BME280;17579;42.690;2.586;2022-07-29T01:26:48;96977.88;;;26.82;37.66
30873;BME280;17579;42.690;2.586;2022-07-29T01:29:34;96976.25;;;26.81;37.64
30873;BME280;17579;42.690;2.586;2022-07-29T01:32:08;96974.63;;;26.80;37.60
30873;BME280;17579;42.690;2.586;2022-07-29T01:34:50;96964.47;;;26.70;37.57
30873;BME280;17579;42.690;2.586;2022-07-29T01:43:23;96938.63;;;26.62;37.96
30873;BME280;17579;42.690;2.586;2022-07-29T01:46:05;96942.03;;;26.53;37.56
30873;BME280;17579;42.690;2.586;2022-07-29T01:48:45;96940.13;;;26.53;37.71
30873;BME280;17579;42.690;2.586;2022-07-29T01:51:24;96950.44;;;26.51;38.01
30873;BME280;17579;42.690;2.586;2022-07-29T01:54:05;96950.88;;;26.43;38.11
30873;BME280;17579;42.690;2.586;2022-07-29T01:56:32;96952.53;;;26.44;38.16
30873;BME280;17579;42.690;2.586;2022-07-29T01:59:01;96956.88;;;26.45;38.04
30873;BME280;17579;42.690;2.586;2022-07-29T02:01:29;96959.59;;;26.45;38.23
30873;BME280;17579;42.690;2.586;2022-07-29T02:03:57;96951.47;;;26.45;38.35
30873;BME280;17579;42.690;2.586;2022-07-29T02:06:25;96949.81;;;26.44;38.56
30873;BME280;17579;42.690;2.586;2022-07-29T02:08:52;96957.44;;;26.47;38.33
30873;BME280;17579;42.690;2.586;2022-07-29T02:11:19;96953.41;;;26.50;38.34
30873;BME280;17579;42.690;2.586;2022-07-29T02:13:45;96962.59;;;26.49;38.17
30873;BME280;17579;42.690;2.586;2022-07-29T02:16:12;96954.72;;;26.47;38.66
30873;BME280;17579;42.690;2.586;2022-07-29T02:18:41;96950.59;;;26.39;38.63
30873;BME280;17579;42.690;2.586;2022-07-29T02:21:09;96948.88;;;26.33;38.56
30873;BME280;17579;42.690;2.586;2022-07-29T02:23:37;96947.19;;;26.27;38.94
30873;BME280;17579;42.690;2.586;2022-07-29T02:26:06;96953.91;;;26.24;38.77
30873;BME280;17579;42.690;2.586;2022-07-29T02:28:32;96957.47;;;26.25;39.15
30873;BME280;17579;42.690;2.586;2022-07-29T02:31:00;96955.56;;;26.25;38.95
30873;BME280;17579;42.690;2.586;2022-07-29T02:33:29;96959.84;;;26.21;39.29
30873;BME280;17579;42.690;2.586;2022-07-29T02:35:56;96945.50;;;26.21;39.28
30873;BME280;17579;42.690;2.586;2022-07-29T02:38:24;96947.88;;;26.17;39.38
30873;BME280;17579;42.690;2.586;2022-07-29T02:41:08;96941.06;;;26.15;39.00
30873;BME280;17579;42.690;2.586;2022-07-29T02:43:36;96941.63;;;26.17;39.25
30873;BME280;17579;42.690;2.586;2022-07-29T02:46:05;96949.19;;;26.15;39.42
30873;BME280;17579;42.690;2.586;2022-07-29T02:48:38;96941.31;;;26.13;39.62
30873;BME280;17579;42.690;2.586;2022-07-29T02:51:08;96932.38;;;26.13;39.60
30873;BME280;17579;42.690;2.586;2022-07-29T02:53:38;96937.28;;;26.16;39.48
30873;BME280;17579;42.690;2.586;2022-07-29T02:56:13;96945.38;;;26.10;39.70
30873;BME280;17579;42.690;2.586;2022-07-29T02:58:48;96939.63;;;26.07;39.61
30873;BME280;17579;42.690;2.586;2022-07-29T03:01:16;96949.66;;;26.06;40.12
30873;BME280;17579;42.690;2.586;2022-07-29T03:03:46;96942.84;;;26.04;40.40
30873;BME280;17579;42.690;2.586;2022-07-29T03:06:14;96954.19;;;26.01;40.13
30873;BME280;17579;42.690;2.586;2022-07-29T03:08:42;96957.38;;;25.98;40.27
30873;BME280;17579;42.690;2.586;2022-07-29T03:11:08;96958.09;;;25.93;40.73
30873;BME280;17579;42.690;2.586;2022-07-29T03:13:35;96952.63;;;25.88;40.83
30873;BME280;17579;42.690;2.586;2022-07-29T03:16:02;96953.88;;;25.80;40.76
30873;BME280;17579;42.690;2.586;2022-07-29T03:18:28;96951.13;;;25.75;41.02
30873;BME280;17579;42.690;2.586;2022-07-29T03:20:53;96949.16;;;25.70;40.91
30873;BME280;17579;42.690;2.586;2022-07-29T03:23:20;96949.59;;;25.62;40.98
30873;BME280;17579;42.690;2.586;2022-07-29T03:25:48;96949.00;;;25.60;41.46
30873;BME280;17579;42.690;2.586;2022-07-29T03:28:14;96948.69;;;25.56;41.04
30873;BME280;17579;42.690;2.586;2022-07-29T03:30:40;96957.81;;;25.50;41.21
30873;BME280;17579;42.690;2.586;2022-07-29T03:33:06;96949.34;;;25.47;41.42
30873;BME280;17579;42.690;2.586;2022-07-29T03:35:32;96954.22;;;25.45;41.75
30873;BME280;17579;42.690;2.586;2022-07-29T03:37:58;96959.63;;;25.45;41.76
30873;BME280;17579;42.690;2.586;2022-07-29T03:40:35;96970.13;;;25.41;41.07
30873;BME280;17579;42.690;2.586;2022-07-29T03:43:05;96967.75;;;25.45;41.90
30873;BME280;17579;42.690;2.586;2022-07-29T03:45:33;96975.03;;;25.44;41.47
30873;BME280;17579;42.690;2.586;2022-07-29T03:48:03;96958.22;;;25.42;41.64
30873;BME280;17579;42.690;2.586;2022-07-29T03:50:31;96966.34;;;25.42;41.75
30873;BME280;17579;42.690;2.586;2022-07-29T03:52:58;96963.38;;;25.44;41.69
30873;BME280;17579;42.690;2.586;2022-07-29T03:55:24;96967.41;;;25.41;41.78
30873;BME280;17579;42.690;2.586;2022-07-29T03:57:51;96963.63;;;25.42;41.71
30873;BME280;17579;42.690;2.586;2022-07-29T04:00:17;96961.25;;;25.46;41.70
30873;BME280;17579;42.690;2.586;2022-07-29T04:02:43;96964.84;;;25.51;41.92
30873;BME280;17579;42.690;2.586;2022-07-29T04:05:14;96964.13;;;25.56;41.60
30873;BME280;17579;42.690;2.586;2022-07-29T04:07:43;96968.44;;;25.57;41.74
30873;BME280;17579;42.690;2.586;2022-07-29T04:10:09;96973.16;;;25.62;41.38
30873;BME280;17579;42.690;2.586;2022-07-29T04:12:35;96963.13;;;25.62;41.43
30873;BME280;17579;42.690;2.586;2022-07-29T04:15:03;96968.53;;;25.62;41.39
30873;BME280;17579;42.690;2.586;2022-07-29T04:17:28;96975.00;;;25.61;41.36
30873;BME280;17579;42.690;2.586;2022-07-29T04:19:54;96970.91;;;25.58;41.24
30873;BME280;17579;42.690;2.586;2022-07-29T04:22:20;96968.69;;;25.55;41.46
30873;BME280;17579;42.690;2.586;2022-07-29T04:24:45;96974.78;;;25.46;41.81
30873;BME280;17579;42.690;2.586;2022-07-29T04:27:11;96980.13;;;25.40;41.85
30873;BME280;17579;42.690;2.586;2022-07-29T04:29:36;96980.63;;;25.37;41.81
30873;BME280;17579;42.690;2.586;2022-07-29T04:32:02;96986.16;;;25.31;41.96
30873;BME280;17579;42.690;2.586;2022-07-29T04:34:27;97001.00;;;25.28;42.13
30873;BME280;17579;42.690;2.586;2022-07-29T04:36:53;97004.31;;;25.30;41.82
30873;BME280;17579;42.690;2.586;2022-07-29T04:39:19;97003.59;;;25.35;42.01
30873;BME280;17579;42.690;2.586;2022-07-29T04:41:44;97007.47;;;25.39;42.01
30873;BME280;17579;42.690;2.586;2022-07-29T04:44:10;97021.81;;;25.39;41.60
30873;BME280;17579;42.690;2.586;2022-07-29T04:46:36;97024.50;;;25.39;41.62
30873;BME280;17579;42.690;2.586;2022-07-29T04:49:03;97023.69;;;25.39;41.65
30873;BME280;17579;42.690;2.586;2022-07-29T04:51:28;97029.66;;;25.41;41.70
30873;BME280;17579;42.690;2.586;2022-07-29T04:53:54;97033.22;;;25.41;41.71
30873;BME280;17579;42.690;2.586;2022-07-29T04:56:19;97031.31;;;25.42;41.58
30873;BME280;17579;42.690;2.586;2022-07-29T04:58:45;97038.38;;;25.43;41.40
30873;BME280;17579;42.690;2.586;2022-07-29T05:01:11;97042.72;;;25.44;41.60
30873;BME280;17579;42.690;2.586;2022-07-29T05:03:37;97034.59;;;25.44;41.98
30873;BME280;17579;42.690;2.586;2022-07-29T05:06:02;97046.00;;;25.46;41.77
30873;BME280;17579;42.690;2.586;2022-07-29T05:08:28;97043.31;;;25.46;41.80
30873;BME280;17579;42.690;2.586;2022-07-29T05:10:54;97046.81;;;25.47;42.02
30873;BME280;17579;42.690;2.586;2022-07-29T05:13:20;97053.88;;;25.48;42.23
30873;BME280;17579;42.690;2.586;2022-07-29T05:15:45;97049.88;;;25.50;42.36
30873;BME280;17579;42.690;2.586;2022-07-29T05:18:11;97051.50;;;25.51;42.36
30873;BME280;17579;42.690;2.586;2022-07-29T05:20:37;97055.59;;;25.54;42.34
30873;BME280;17579;42.690;2.586;2022-07-29T05:23:03;97066.78;;;25.57;42.16
30873;BME280;17579;42.690;2.586;2022-07-29T05:25:29;97060.88;;;25.61;42.25
30873;BME280;17579;42.690;2.586;2022-07-29T05:27:56;97066.94;;;25.68;42.02
30873;BME280;17579;42.690;2.586;2022-07-29T05:30:21;97067.00;;;25.73;42.27
30873;BME280;17579;42.690;2.586;2022-07-29T05:32:47;97073.56;;;25.77;42.25
30873;BME280;17579;42.690;2.586;2022-07-29T05:35:15;97075.47;;;25.76;42.22
30873;BME280;17579;42.690;2.586;2022-07-29T05:37:41;97067.91;;;25.79;42.45
30873;BME280;17579;42.690;2.586;2022-07-29T05:40:07;97072.00;;;25.81;42.02
30873;BME280;17579;42.690;2.586;2022-07-29T05:42:34;97063.13;;;25.86;42.29
30873;BME280;17579;42.690;2.586;2022-07-29T05:45:00;97069.19;;;25.93;42.42
30873;BME280;17579;42.690;2.586;2022-07-29T05:47:26;97072.34;;;26.02;41.80
30873;BME280;17579;42.690;2.586;2022-07-29T05:49:52;97068.03;;;26.23;41.75
30873;BME280;17579;42.690;2.586;2022-07-29T05:52:18;97073.09;;;26.36;41.77
30873;BME280;17579;42.690;2.586;2022-07-29T05:54:43;97079.16;;;26.43;41.44
30873;BME280;17579;42.690;2.586;2022-07-29T05:57:24;97090.50;;;26.40;41.39
30873;BME280;17579;42.690;2.586;2022-07-29T05:59:50;97089.66;;;26.62;41.18
30873;BME280;17579;42.690;2.586;2022-07-29T06:02:16;97092.47;;;26.89;40.81
30873;BME280;17579;42.690;2.586;2022-07-29T06:04:42;97097.88;;;27.11;40.87
30873;BME280;17579;42.690;2.586;2022-07-29T06:07:08;97093.00;;;27.36;40.41
30873;BME280;17579;42.690;2.586;2022-07-29T06:09:34;97103.34;;;27.39;39.92
30873;BME280;17579;42.690;2.586;2022-07-29T06:12:00;97101.53;;;27.49;39.81
30873;BME280;17579;42.690;2.586;2022-07-29T06:14:26;97112.38;;;27.49;39.63
30873;BME280;17579;42.690;2.586;2022-07-29T06:16:52;97115.41;;;27.53;39.67
30873;BME280;17579;42.690;2.586;2022-07-29T06:19:18;97123.19;;;27.72;39.89
30873;BME280;17579;42.690;2.586;2022-07-29T06:21:45;97119.59;;;27.98;39.28
30873;BME280;17579;42.690;2.586;2022-07-29T06:24:12;97120.34;;;28.26;38.96
30873;BME280;17579;42.690;2.586;2022-07-29T06:26:39;97120.19;;;28.48;38.34
30873;BME280;17579;42.690;2.586;2022-07-29T06:29:05;97113.19;;;28.58;38.16
30873;BME280;17579;42.690;2.586;2022-07-29T06:31:30;97118.16;;;28.71;38.24
30873;BME280;17579;42.690;2.586;2022-07-29T06:33:56;97122.59;;;28.93;37.80
30873;BME280;17579;42.690;2.586;2022-07-29T06:36:22;97129.47;;;29.11;36.85
30873;BME280;17579;42.690;2.586;2022-07-29T06:38:48;97138.16;;;29.08;36.62
30873;BME280;17579;42.690;2.586;2022-07-29T06:41:13;97148.53;;;29.16;37.03
30873;BME280;17579;42.690;2.586;2022-07-29T06:43:42;97139.38;;;29.32;36.54
30873;BME280;17579;42.690;2.586;2022-07-29T06:46:14;97154.59;;;29.28;36.51
30873;BME280;17579;42.690;2.586;2022-07-29T06:48:40;97157.25;;;29.13;36.84
30873;BME280;17579;42.690;2.586;2022-07-29T06:51:07;97161.25;;;28.90;36.99
30873;BME280;17579;42.690;2.586;2022-07-29T06:53:35;97167.00;;;28.13;38.28
30873;BME280;17579;42.690;2.586;2022-07-29T06:56:01;97170.09;;;28.22;37.55
30873;BME280;17579;42.690;2.586;2022-07-29T06:58:28;97173.25;;;28.08;37.99
30873;BME280;17579;42.690;2.586;2022-07-29T07:00:55;97177.09;;;27.85;38.30
30873;BME280;17579;42.690;2.586;2022-07-29T07:03:21;97175.59;;;27.67;38.66
30873;BME280;17579;42.690;2.586;2022-07-29T07:05:48;97184.72;;;27.56;38.52
30873;BME280;17579;42.690;2.586;2022-07-29T07:08:14;97182.19;;;27.49;39.08
30873;BME280;17579;42.690;2.586;2022-07-29T07:10:41;97185.38;;;27.41;39.12
30873;BME280;17579;42.690;2.586;2022-07-29T07:13:07;97190.75;;;27.36;39.13
30873;BME280;17579;42.690;2.586;2022-07-29T07:15:33;97190.16;;;27.34;39.10
30873;BME280;17579;42.690;2.586;2022-07-29T07:17:58;97199.56;;;27.26;39.22
30873;BME280;17579;42.690;2.586;2022-07-29T07:20:25;97196.53;;;27.22;39.70
30873;BME280;17579;42.690;2.586;2022-07-29T07:22:50;97200.00;;;27.18;39.67
30873;BME280;17579;42.690;2.586;2022-07-29T07:25:17;97213.03;;;27.16;39.81
30873;BME280;17579;42.690;2.586;2022-07-29T07:27:44;97216.31;;;27.18;39.78
30873;BME280;17579;42.690;2.586;2022-07-29T07:30:10;97203.88;;;27.22;39.32
30873;BME280;17579;42.690;2.586;2022-07-29T07:32:36;97196.06;;;27.25;39.24
30873;BME280;17579;42.690;2.586;2022-07-29T07:35:04;97203.63;;;27.23;39.63
30873;BME280;17579;42.690;2.586;2022-07-29T07:37:30;97214.97;;;27.20;39.31
30873;BME280;17579;42.690;2.586;2022-07-29T07:39:55;97219.28;;;27.16;39.59
30873;BME280;17579;42.690;2.586;2022-07-29T07:42:22;97233.63;;;27.11;39.60
30873;BME280;17579;42.690;2.586;2022-07-29T07:44:47;97234.38;;;27.07;39.65
30873;BME280;17579;42.690;2.586;2022-07-29T07:47:14;97250.03;;;27.00;39.73
30873;BME280;17579;42.690;2.586;2022-07-29T07:49:46;97243.47;;;26.95;40.43
30873;BME280;17579;42.690;2.586;2022-07-29T07:52:13;97252.56;;;26.89;40.38
30873;BME280;17579;42.690;2.586;2022-07-29T07:54:39;97254.47;;;26.89;40.19
30873;BME280;17579;42.690;2.586;2022-07-29T07:57:04;97254.47;;;26.89;40.55
30873;BME280;17579;42.690;2.586;2022-07-29T07:59:30;97254.47;;;26.89;40.45
30873;BME280;17579;42.690;2.586;2022-07-29T08:01:56;97250.44;;;26.91;40.48
30873;BME280;17579;42.690;2.586;2022-07-29T08:04:22;97263.00;;;26.97;40.22
30873;BME280;17579;42.690;2.586;2022-07-29T08:06:48;97267.44;;;27.04;40.45
30873;BME280;17579;42.690;2.586;2022-07-29T08:09:15;97271.91;;;27.15;40.40
30873;BME280;17579;42.690;2.586;2022-07-29T08:11:40;97282.59;;;27.22;40.44
30873;BME280;17579;42.690;2.586;2022-07-29T08:14:06;97297.25;;;27.21;40.16
30873;BME280;17579;42.690;2.586;2022-07-29T08:16:31;97297.19;;;27.16;40.63
30873;BME280;17579;42.690;2.586;2022-07-29T08:18:57;97294.78;;;27.19;41.68
30873;BME280;17579;42.690;2.586;2022-07-29T08:21:24;97284.69;;;27.14;42.83
30873;BME280;17579;42.690;2.586;2022-07-29T08:23:51;97291.38;;;27.07;44.06
30873;BME280;17579;42.690;2.586;2022-07-29T08:26:36;97289.41;;;27.02;44.62
30873;BME280;17579;42.690;2.586;2022-07-29T08:29:02;97291.38;;;27.07;45.00
30873;BME280;17579;42.690;2.586;2022-07-29T08:31:27;97280.41;;;27.19;44.48
30873;BME280;17579;42.690;2.586;2022-07-29T08:33:53;97273.28;;;27.12;44.36
30873;BME280;17579;42.690;2.586;2022-07-29T08:36:21;97263.66;;;27.05;44.67
30873;BME280;17579;42.690;2.586;2022-07-29T08:38:47;97253.47;;;26.95;45.49
30873;BME280;17579;42.690;2.586;2022-07-29T08:41:18;97264.03;;;26.91;45.46
30873;BME280;17579;42.690;2.586;2022-07-29T08:43:44;97270.84;;;26.94;45.94
30873;BME280;17579;42.690;2.586;2022-07-29T08:46:10;97282.00;;;26.97;45.62
30873;BME280;17579;42.690;2.586;2022-07-29T08:48:36;97288.03;;;27.00;45.71
30873;BME280;17579;42.690;2.586;2022-07-29T08:51:05;97269.59;;;27.02;45.63
30873;BME280;17579;42.690;2.586;2022-07-29T08:53:33;97276.13;;;27.45;44.73
30873;BME280;17579;42.690;2.586;2022-07-29T08:55:59;97268.50;;;28.51;43.53
30873;BME280;17579;42.690;2.586;2022-07-29T08:58:25;97267.94;;;29.34;42.20
30873;BME280;17579;42.690;2.586;2022-07-29T09:00:54;97265.94;;;29.83;39.59
30873;BME280;17579;42.690;2.586;2022-07-29T09:03:23;97259.16;;;30.01;39.31
30873;BME280;17579;42.690;2.586;2022-07-29T09:05:49;97257.25;;;30.12;39.54
30873;BME280;17579;42.690;2.586;2022-07-29T09:08:17;97240.91;;;30.58;37.27
30873;BME280;17579;42.690;2.586;2022-07-29T09:10:43;97234.50;;;31.14;35.87
30873;BME280;17579;42.690;2.586;2022-07-29T09:13:10;97236.38;;;31.24;35.37
30873;BME280;17579;42.690;2.586;2022-07-29T09:15:35;97251.16;;;31.13;34.44
30873;BME280;17579;42.690;2.586;2022-07-29T09:18:01;97246.31;;;30.89;33.87
30873;BME280;17579;42.690;2.586;2022-07-29T09:20:27;97237.63;;;30.66;34.62
30873;BME280;17579;42.690;2.586;2022-07-29T09:23:13;97239.50;;;30.66;34.51
30873;BME280;17579;42.690;2.586;2022-07-29T09:25:40;97226.63;;;30.87;33.55
30873;BME280;17579;42.690;2.586;2022-07-29T09:28:14;97223.56;;;31.14;34.22
30873;BME280;17579;42.690;2.586;2022-07-29T09:30:54;97227.56;;;31.37;33.53
30873;BME280;17579;42.690;2.586;2022-07-29T09:33:21;97219.00;;;31.54;32.66
30873;BME280;17579;42.690;2.586;2022-07-29T09:36:02;97225.41;;;31.34;33.88
30873;BME280;17579;42.690;2.586;2022-07-29T09:38:28;97239.63;;;31.26;33.70
30873;BME280;17579;42.690;2.586;2022-07-29T09:40:59;97248.72;;;31.11;32.77
30873;BME280;17579;42.690;2.586;2022-07-29T09:43:24;97256.38;;;30.99;32.76
30873;BME280;17579;42.690;2.586;2022-07-29T09:45:50;97258.63;;;30.76;33.02
30873;BME280;17579;42.690;2.586;2022-07-29T09:48:22;97258.09;;;30.53;32.92
30873;BME280;17579;42.690;2.586;2022-07-29T09:50:50;97246.88;;;30.29;32.20
30873;BME280;17579;42.690;2.586;2022-07-29T09:53:37;97243.88;;;30.00;33.74
30873;BME280;17579;42.690;2.586;2022-07-29T09:56:04;97246.88;;;29.83;32.76
30873;BME280;17579;42.690;2.586;2022-07-29T09:58:30;97231.50;;;29.56;33.75
30873;BME280;17579;42.690;2.586;2022-07-29T10:00:58;97236.63;;;29.37;34.54
30873;BME280;17579;42.690;2.586;2022-07-29T10:03:24;97234.34;;;29.18;35.26
30873;BME280;17579;42.690;2.586;2022-07-29T10:06:09;97232.34;;;28.98;36.05
30873;BME280;17579;42.690;2.586;2022-07-29T10:08:35;97244.56;;;28.91;36.38
30873;BME280;17579;42.690;2.586;2022-07-29T10:11:12;97269.75;;;28.71;36.84
30873;BME280;17579;42.690;2.586;2022-07-29T10:13:39;97267.75;;;28.61;38.04
30873;BME280;17579;42.690;2.586;2022-07-29T10:16:06;97276.31;;;28.42;38.25
30873;BME280;17579;42.690;2.586;2022-07-29T10:18:32;97276.69;;;28.24;38.97
30873;BME280;17579;42.690;2.586;2022-07-29T10:21:00;97284.50;;;28.15;39.07
30873;BME280;17579;42.690;2.586;2022-07-29T10:23:28;97293.66;;;28.04;38.92
30873;BME280;17579;42.690;2.586;2022-07-29T10:25:54;97299.75;;;27.94;39.20
30873;BME280;17579;42.690;2.586;2022-07-29T10:28:20;97314.31;;;27.82;39.11
30873;BME280;17579;42.690;2.586;2022-07-29T10:30:52;97322.00;;;27.63;40.56
30873;BME280;17579;42.690;2.586;2022-07-29T10:33:44;97363.31;;;27.26;40.89
30873;BME280;17579;42.690;2.586;2022-07-29T10:42:24;97322.97;;;25.70;46.28
30873;BME280;17579;42.690;2.586;2022-07-29T10:44:52;97323.47;;;25.55;47.56
30873;BME280;17579;42.690;2.586;2022-07-29T10:47:22;97313.03;;;25.35;46.70
30873;BME280;17579;42.690;2.586;2022-07-29T10:49:59;97288.78;;;25.17;45.80
30873;BME280;17579;42.690;2.586;2022-07-29T10:52:54;97263.50;;;25.11;45.97
30873;BME280;17579;42.690;2.586;2022-07-29T10:55:34;97223.03;;;25.16;46.95
30873;BME280;17579;42.690;2.586;2022-07-29T10:58:16;97237.47;;;25.22;48.05
30873;BME280;17579;42.690;2.586;2022-07-29T11:00:42;97305.16;;;25.34;49.67
30873;BME280;17579;42.690;2.586;2022-07-29T11:03:08;97295.97;;;25.11;49.69
30873;BME280;17579;42.690;2.586;2022-07-29T11:05:57;97256.97;;;24.71;48.91
30873;BME280;17579;42.690;2.586;2022-07-29T11:08:23;97250.69;;;24.59;50.59
30873;BME280;17579;42.690;2.586;2022-07-29T11:10:51;97242.59;;;24.47;51.17
30873;BME280;17579;42.690;2.586;2022-07-29T11:16:07;97240.69;;;24.95;50.24
30873;BME280;17579;42.690;2.586;2022-07-29T11:18:32;97222.81;;;25.06;50.49
30873;BME280;17579;42.690;2.586;2022-07-29T11:20:58;97197.38;;;25.19;51.03
30873;BME280;17579;42.690;2.586;2022-07-29T11:23:30;97164.72;;;25.25;50.32
30873;BME280;17579;42.690;2.586;2022-07-29T11:26:15;97154.38;;;25.22;50.01
30873;BME280;17579;42.690;2.586;2022-07-29T11:29:06;97162.84;;;25.26;50.27
30873;BME280;17579;42.690;2.586;2022-07-29T11:31:43;97206.38;;;25.36;51.33
30873;BME280;17579;42.690;2.586;2022-07-29T11:34:29;97219.13;;;25.36;50.28
30873;BME280;17579;42.690;2.586;2022-07-29T11:37:18;97214.25;;;25.38;50.61
30873;BME280;17579;42.690;2.586;2022-07-29T11:39:46;97209.81;;;25.61;50.87
30873;BME280;17579;42.690;2.586;2022-07-29T11:42:40;97207.34;;;25.59;50.89
30873;BME280;17579;42.690;2.586;2022-07-29T11:45:20;97191.28;;;25.69;49.92
30873;BME280;17579;42.690;2.586;2022-07-29T11:47:49;97184.13;;;25.80;49.99
30873;BME280;17579;42.690;2.586;2022-07-29T11:50:34;97187.34;;;25.77;50.96
30873;BME280;17579;42.690;2.586;2022-07-29T11:53:12;97200.34;;;25.92;49.76
30873;BME280;17579;42.690;2.586;2022-07-29T11:55:41;97201.06;;;25.87;49.46
30873;BME280;17579;42.690;2.586;2022-07-29T11:58:07;97198.59;;;25.86;49.66
30873;BME280;17579;42.690;2.586;2022-07-29T12:00:40;97183.91;;;25.99;49.26
30873;BME280;17579;42.690;2.586;2022-07-29T12:03:10;97174.50;;;26.18;49.22
30873;BME280;17579;42.690;2.586;2022-07-29T12:05:44;97169.47;;;26.27;48.62
30873;BME280;17579;42.690;2.586;2022-07-29T12:08:18;97179.56;;;26.49;48.84
30873;BME280;17579;42.690;2.586;2022-07-29T12:10:46;97168.56;;;26.77;50.47
30873;BME280;17579;42.690;2.586;2022-07-29T12:13:13;97166.03;;;27.15;50.40
30873;BME280;17579;42.690;2.586;2022-07-29T12:15:40;97161.50;;;27.43;47.15
30873;BME280;17579;42.690;2.586;2022-07-29T12:18:14;97156.94;;;27.48;46.04
30873;BME280;17579;42.690;2.586;2022-07-29T12:20:43;97158.81;;;27.75;46.86
30873;BME280;17579;42.690;2.586;2022-07-29T12:23:10;97164.78;;;28.05;45.83
30873;BME280;17579;42.690;2.586;2022-07-29T12:25:41;97159.50;;;28.25;45.44
30873;BME280;17579;42.690;2.586;2022-07-29T12:28:09;97158.06;;;28.55;45.35
30873;BME280;17579;42.690;2.586;2022-07-29T12:30:47;97156.19;;;28.61;42.20
30873;BME280;17579;42.690;2.586;2022-07-29T12:33:28;97157.25;;;28.60;42.46
30873;BME280;17579;42.690;2.586;2022-07-29T12:35:59;97151.16;;;28.90;42.66
30873;BME280;17579;42.690;2.586;2022-07-29T12:38:26;97166.88;;;29.36;40.46
30873;BME280;17579;42.690;2.586;2022-07-29T12:40:53;97159.06;;;29.96;39.85
30873;BME280;17579;42.690;2.586;2022-07-29T12:43:22;97162.84;;;30.47;38.40
30873;BME280;17579;42.690;2.586;2022-07-29T12:45:53;97163.56;;;30.88;36.78
30873;BME280;17579;42.690;2.586;2022-07-29T12:48:38;97160.44;;;31.21;36.37
30873;BME280;17579;42.690;2.586;2022-07-29T12:51:06;97161.47;;;31.75;34.63
30873;BME280;17579;42.690;2.586;2022-07-29T12:53:33;97174.53;;;31.88;33.24
30873;BME280;17579;42.690;2.586;2022-07-29T12:58:51;97172.00;;;32.85;33.85
30873;BME280;17579;42.690;2.586;2022-07-29T13:01:20;97175.03;;;32.84;33.01
30873;BME280;17579;42.690;2.586;2022-07-29T13:03:56;97172.31;;;33.27;35.33
30873;BME280;17579;42.690;2.586;2022-07-29T13:06:44;97169.69;;;33.41;36.30
30873;BME280;17579;42.690;2.586;2022-07-29T13:09:13;97168.94;;;33.54;35.46
30873;BME280;17579;42.690;2.586;2022-07-29T13:11:48;97167.25;;;33.39;36.64
30873;BME280;17579;42.690;2.586;2022-07-29T13:14:35;97175.38;;;33.44;36.88
30873;BME280;17579;42.690;2.586;2022-07-29T13:17:10;97184.34;;;33.50;35.17
30873;BME280;17579;42.690;2.586;2022-07-29T13:19:38;97192.41;;;33.60;36.10
30873;BME280;17579;42.690;2.586;2022-07-29T13:22:09;97188.88;;;33.60;34.90
30873;BME280;17579;42.690;2.586;2022-07-29T13:24:56;97188.72;;;33.32;35.57
30873;BME280;17579;42.690;2.586;2022-07-29T13:27:26;97189.19;;;33.15;36.14
30873;BME280;17579;42.690;2.586;2022-07-29T13:29:55;97194.66;;;33.15;36.25
30873;BME280;17579;42.690;2.586;2022-07-29T13:32:23;97192.78;;;33.35;36.55
30873;BME280;17579;42.690;2.586;2022-07-29T13:34:50;97192.50;;;33.12;36.49